Time;durP1;ratioP1;P1;durP2;ratioP2;P2;SDS_P1;SDS_P2;PMS_P1;PMS_P2;Temp;Humidity;BMP_temperature;BMP_pressure;BME280_temperature;BME280_humidity;BME280_pressure;Samples;Min_cycle;Max_cycle;Signal;HPM_P1;HPM_P2
2021/03/20 00:00:19;;;;;;;21.67;11.90;;;-2.10;69.00;;;;;;5016624;28;20505;-57
2021/03/20 00:02:45;;;;;;;21.90;11.00;;;-2.10;69.50;;;;;;5033727;28;20669;-66
2021/03/20 00:05:12;;;;;;;21.27;11.03;;;-2.00;70.10;;;;;;5016794;28;20082;-67
2021/03/20 00:07:39;;;;;;;20.27;10.37;;;-1.90;70.50;;;;;;5034004;28;20037;-67
2021/03/20 00:10:09;;;;;;;21.87;11.17;;;-1.80;70.60;;;;;;5034026;28;20520;-68
2021/03/20 00:12:34;;;;;;;20.10;9.43;;;-1.70;70.80;;;;;;5034078;28;20486;-67
2021/03/20 00:15:00;;;;;;;20.17;10.20;;;-1.70;70.60;;;;;;5033674;28;20057;-66
2021/03/20 00:17:26;;;;;;;19.77;10.93;;;-1.60;70.60;;;;;;5016649;28;20049;-66
2021/03/20 00:19:52;;;;;;;19.90;11.03;;;-1.60;70.60;;;;;;4999635;28;20034;-66
2021/03/20 00:22:17;;;;;;;19.57;10.50;;;-1.50;70.80;;;;;;5033674;28;20481;-67
2021/03/20 00:24:43;;;;;;;23.77;11.60;;;-1.50;70.80;;;;;;5034013;28;20041;-66
2021/03/20 00:27:09;;;;;;;29.20;15.23;;;-1.40;70.80;;;;;;5015931;28;20413;-66
2021/03/20 00:29:35;;;;;;;20.13;11.23;;;-1.40;70.70;;;;;;5033760;28;20095;-66
2021/03/20 00:32:00;;;;;;;20.73;10.70;;;-1.40;70.80;;;;;;5033059;28;20425;-66
2021/03/20 00:34:26;;;;;;;19.40;10.80;;;-1.30;70.90;;;;;;5033554;28;20500;-66
2021/03/20 00:36:52;;;;;;;22.80;10.80;;;-1.30;71.00;;;;;;5033796;28;20041;-66
2021/03/20 00:39:18;;;;;;;18.93;9.77;;;-1.30;71.10;;;;;;5015792;28;20409;-66
2021/03/20 00:41:44;;;;;;;18.70;10.10;;;-1.20;71.10;;;;;;5033932;28;20403;-67
2021/03/20 00:44:10;;;;;;;18.80;10.30;;;-1.20;71.00;;;;;;5034477;28;20176;-66
2021/03/20 00:46:37;;;;;;;20.40;10.43;;;-1.20;70.90;;;;;;5033884;28;20053;-61
2021/03/20 00:49:02;;;;;;;18.17;10.23;;;-1.20;70.80;;;;;;5015159;28;20038;-61
2021/03/20 00:51:28;;;;;;;21.67;10.03;;;-1.30;70.70;;;;;;5032301;28;20503;-60
2021/03/20 00:53:54;;;;;;;20.73;10.13;;;-1.30;70.70;;;;;;5033556;28;20083;-60
2021/03/20 00:56:20;;;;;;;21.87;10.03;;;-1.40;70.60;;;;;;5033501;28;20417;-60
2021/03/20 00:58:46;;;;;;;19.67;10.10;;;-1.40;71.00;;;;;;5032926;28;20030;-60
2021/03/20 01:01:14;;;;;;;20.37;10.50;;;-1.50;70.40;;;;;;5032465;28;20512;-60
2021/03/20 01:03:40;;;;;;;18.90;10.33;;;-1.60;70.70;;;;;;5032951;28;20065;-60
2021/03/20 01:06:10;;;;;;;21.27;11.00;;;-1.70;70.70;;;;;;5015739;28;20463;-60
2021/03/20 01:08:36;;;;;;;19.63;10.40;;;-1.70;70.80;;;;;;5015747;28;20176;-60
2021/03/20 01:11:03;;;;;;;19.00;9.63;;;-1.80;70.90;;;;;;5032627;28;20120;-60
2021/03/20 01:13:29;;;;;;;18.73;9.60;;;-1.90;71.20;;;;;;5032954;28;20116;-60
2021/03/20 01:15:55;;;;;;;18.23;9.67;;;-1.90;71.60;;;;;;5015094;28;20171;-60
2021/03/20 01:18:20;;;;;;;20.23;9.80;;;-1.90;71.80;;;;;;5033122;28;20044;-60
2021/03/20 01:20:46;;;;;;;19.57;9.27;;;-2.00;72.20;;;;;;5031996;28;20124;-60
2021/03/20 01:23:13;;;;;;;17.47;8.97;;;-1.90;72.70;;;;;;5032678;28;20104;-60
2021/03/20 01:25:39;;;;;;;17.03;8.50;;;-1.90;73.00;;;;;;5015353;28;20115;-61
2021/03/20 01:28:05;;;;;;;18.70;8.67;;;-1.80;73.10;;;;;;5032376;28;20037;-60
2021/03/20 01:30:34;;;;;;;16.90;7.90;;;-1.80;73.00;;;;;;5032569;28;20048;-65
2021/03/20 01:33:00;;;;;;;16.43;7.80;;;-1.80;73.00;;;;;;5032474;28;20387;-65
2021/03/20 01:35:26;;;;;;;18.00;8.90;;;-1.80;72.90;;;;;;5031998;28;20056;-66
2021/03/20 01:37:52;;;;;;;18.03;8.13;;;-1.70;73.00;;;;;;5015294;28;20571;-65
2021/03/20 01:40:22;;;;;;;16.30;7.80;;;-1.70;73.10;;;;;;5014189;28;20076;-65
2021/03/20 01:42:47;;;;;;;14.67;8.23;;;-1.70;73.10;;;;;;5014712;28;20405;-65
2021/03/20 01:45:16;;;;;;;18.10;7.73;;;-1.70;73.20;;;;;;5032069;28;20037;-66
2021/03/20 01:47:47;;;;;;;13.80;7.17;;;-1.70;73.50;;;;;;5014293;28;20058;-66
2021/03/20 01:50:45;;;;;;;17.60;7.73;;;-1.70;74.00;;;;;;5014444;28;20047;-66
2021/03/20 01:53:31;;;;;;;14.73;7.70;;;-1.60;74.30;;;;;;4998289;28;20069;-65
2021/03/20 01:55:57;;;;;;;13.37;6.63;;;-1.50;74.20;;;;;;5014519;28;20493;-66
2021/03/20 01:58:24;;;;;;;16.10;7.23;;;-1.40;74.20;;;;;;5031967;28;20116;-66
2021/03/20 02:00:56;;;;;;;14.07;6.70;;;-1.40;74.30;;;;;;5013874;28;20111;-66
2021/03/20 02:03:21;;;;;;;14.07;6.97;;;-1.30;74.50;;;;;;5031539;28;20087;-65
2021/03/20 02:05:50;;;;;;;13.23;7.07;;;-1.30;74.60;;;;;;4998235;28;20037;-65
2021/03/20 02:08:18;;;;;;;14.07;6.67;;;-1.20;74.70;;;;;;5031660;28;20542;-65
2021/03/20 02:10:46;;;;;;;15.27;7.47;;;-1.20;74.80;;;;;;5014004;28;20493;-66
2021/03/20 02:13:22;;;;;;;14.70;7.20;;;-1.10;74.80;;;;;;5032028;28;20084;-65
2021/03/20 02:15:55;;;;;;;16.53;7.23;;;-1.00;74.70;;;;;;5031595;28;20033;-65
2021/03/20 02:18:37;;;;;;;14.93;7.53;;;-1.00;74.70;;;;;;5032065;28;20095;-66
2021/03/20 02:21:24;;;;;;;15.43;7.27;;;-0.90;74.80;;;;;;5031019;28;20053;-65
2021/03/20 02:24:08;;;;;;;14.67;6.93;;;-0.80;74.80;;;;;;5013619;28;20130;-64
2021/03/20 02:27:11;;;;;;;14.90;6.67;;;-0.80;74.90;;;;;;5014016;28;20037;-67
2021/03/20 02:29:56;;;;;;;13.57;6.50;;;-0.80;74.80;;;;;;5013308;28;20038;-66
2021/03/20 02:32:34;;;;;;;13.00;6.20;;;-0.70;74.80;;;;;;5030882;28;20030;-65
2021/03/20 02:35:44;;;;;;;15.00;6.57;;;-0.70;74.70;;;;;;5031657;28;20112;-66
2021/03/20 02:38:26;;;;;;;15.68;6.28;;;-0.60;74.70;;;;;;5027367;28;20120;-66
2021/03/20 02:41:18;;;;;;;15.73;6.70;;;-0.60;74.80;;;;;;5030323;28;20120;-65
2021/03/20 02:44:00;;;;;;;13.03;6.00;;;-0.60;74.60;;;;;;5014043;28;20045;-60
2021/03/20 02:46:44;;;;;;;12.70;5.80;;;-0.60;74.50;;;;;;5013412;28;20033;-60
2021/03/20 02:49:13;;;;;;;11.77;5.57;;;-0.50;74.40;;;;;;5031397;28;20116;-59
2021/03/20 02:51:57;;;;;;;12.40;5.77;;;-0.50;74.20;;;;;;5030485;28;20048;-60
2021/03/20 02:54:33;;;;;;;12.80;5.33;;;-0.40;74.20;;;;;;5030806;28;20044;-59
2021/03/20 02:57:11;;;;;;;11.10;4.93;;;-0.40;74.10;;;;;;5031327;28;20425;-59
2021/03/20 02:59:45;;;;;;;14.40;4.87;;;-0.40;73.90;;;;;;5030634;28;20042;-59
2021/03/20 03:02:14;;;;;;;12.27;4.70;;;-0.40;73.60;;;;;;5030538;28;20112;-60
2021/03/20 03:05:07;;;;;;;10.73;4.80;;;-0.40;73.40;;;;;;5030690;28;20030;-60
2021/03/20 03:07:37;;;;;;;14.53;5.00;;;-0.50;73.10;;;;;;5013427;28;20094;-59
2021/03/20 03:10:09;;;;;;;13.98;4.72;;;-0.50;73.20;;;;;;5030469;28;20132;-60
2021/03/20 03:12:41;;;;;;;11.67;4.80;;;-0.40;73.20;;;;;;5012750;28;20485;-60
2021/03/20 03:15:19;;;;;;;11.63;5.17;;;-0.40;73.30;;;;;;5012998;28;20033;-60
2021/03/20 03:17:50;;;;;;;10.80;4.80;;;-0.40;73.30;;;;;;5031058;28;20044;-60
2021/03/20 03:20:22;;;;;;;11.03;4.93;;;-0.40;73.20;;;;;;5030043;28;20037;-60
2021/03/20 03:22:54;;;;;;;11.63;4.60;;;-0.30;73.30;;;;;;5030766;28;20037;-60
2021/03/20 03:25:23;;;;;;;11.13;4.47;;;-0.30;73.30;;;;;;5013093;28;20121;-60
2021/03/20 03:27:53;;;;;;;9.23;4.30;;;-0.30;73.10;;;;;;5013279;28;20038;-60
2021/03/20 03:30:22;;;;;;;12.90;4.43;;;-0.20;73.00;;;;;;5030017;28;20131;-60
2021/03/20 03:33:10;;;;;;;11.10;4.17;;;-0.20;73.30;;;;;;5012921;28;20485;-60
2021/03/20 03:35:42;;;;;;;9.63;4.10;;;-0.20;72.80;;;;;;5016446;28;20092;-60
2021/03/20 03:38:22;;;;;;;12.27;4.30;;;-0.10;72.80;;;;;;5013063;28;20038;-60
2021/03/20 03:41:08;;;;;;;9.65;3.58;;;-0.10;72.70;;;;;;5029763;28;20406;-60
2021/03/20 03:43:34;;;;;;;10.80;3.97;;;-0.10;72.60;;;;;;5029984;28;20048;-61
2021/03/20 03:45:59;;;;;;;12.00;4.23;;;-0.10;72.50;;;;;;5030709;28;20029;-60
2021/03/20 03:48:26;;;;;;;9.70;3.93;;;0.00;72.50;;;;;;5030647;28;20405;-60
2021/03/20 03:50:53;;;;;;;9.77;3.60;;;0.00;72.40;;;;;;5029567;28;20065;-60
2021/03/20 03:53:27;;;;;;;13.03;4.13;;;0.00;72.40;;;;;;5013303;28;20194;-59
2021/03/20 03:56:07;;;;;;;8.30;3.47;;;0.00;72.30;;;;;;5012443;28;20415;-60
2021/03/20 03:58:42;;;;;;;8.68;3.22;;;0.10;72.30;;;;;;5030591;28;20046;-60
2021/03/20 04:01:24;;;;;;;11.50;3.40;;;0.10;72.20;;;;;;4995452;28;20104;-60
2021/03/20 04:04:08;;;;;;;10.10;3.70;;;0.10;72.10;;;;;;5029973;28;20053;-60
2021/03/20 04:06:48;;;;;;;7.97;3.00;;;0.10;72.10;;;;;;5030412;28;20045;-60
2021/03/20 04:09:54;;;;;;;8.25;3.25;;;0.10;72.00;;;;;;5030158;28;20572;-60
2021/03/20 04:12:32;;;;;;;9.53;3.03;;;0.10;72.10;;;;;;4985407;28;20437;-60
2021/03/20 04:15:23;;;;;;;8.53;3.00;;;0.10;72.00;;;;;;5012516;28;20072;-60
2021/03/20 04:18:02;;;;;;;9.18;2.75;;;0.20;71.90;;;;;;5030464;28;20069;-60
2021/03/20 04:20:41;;;;;;;8.07;3.27;;;0.20;71.70;;;;;;5029505;28;20072;-60
2021/03/20 04:23:17;;;;;;;9.70;2.80;;;0.10;71.40;;;;;;5030234;28;20129;-60
2021/03/20 04:25:54;;;;;;;9.33;2.77;;;0.10;71.30;;;;;;5032530;28;20056;-60
2021/03/20 04:28:29;;;;;;;7.83;2.80;;;0.10;71.40;;;;;;5034069;28;20092;-60
2021/03/20 04:31:14;;;;;;;9.60;2.60;;;0.10;71.30;;;;;;5033117;28;20044;-60
2021/03/20 04:34:01;;;;;;;7.43;2.67;;;0.10;71.10;;;;;;5033373;28;20045;-61
2021/03/20 04:36:33;;;;;;;7.40;2.43;;;0.10;71.00;;;;;;5033780;28;20087;-60
2021/03/20 04:39:02;;;;;;;9.17;2.60;;;0.00;71.20;;;;;;5015915;28;20061;-60
2021/03/20 04:41:28;;;;;;;6.37;2.53;;;0.00;71.30;;;;;;5033245;28;20037;-60
2021/03/20 04:43:54;;;;;;;9.57;2.60;;;0.00;71.20;;;;;;5033013;28;20041;-60
2021/03/20 04:46:28;;;;;;;7.33;2.60;;;0.10;71.20;;;;;;5033914;28;20061;-60
2021/03/20 04:49:19;;;;;;;7.67;2.77;;;0.10;71.10;;;;;;5033653;28;20041;-60
2021/03/20 04:51:50;;;;;;;9.45;2.53;;;0.10;71.10;;;;;;5032416;28;20041;-60
2021/03/20 04:54:20;;;;;;;8.90;2.60;;;0.10;71.10;;;;;;5033488;28;20045;-60
2021/03/20 04:56:53;;;;;;;8.75;2.60;;;0.10;71.00;;;;;;5033039;28;20053;-60
2021/03/20 04:59:42;;;;;;;7.00;2.40;;;0.10;71.00;;;;;;5033579;28;20037;-60
2021/03/20 05:02:38;;;;;;;5.97;2.40;;;0.10;71.00;;;;;;5032631;28;20066;-60
2021/03/20 05:05:17;;;;;;;7.30;2.70;;;0.10;71.50;;;;;;5000106;28;20029;-60
2021/03/20 05:07:43;;;;;;;6.57;2.43;;;0.10;71.10;;;;;;5033259;28;20046;-60
2021/03/20 05:10:25;;;;;;;7.83;2.00;;;0.20;71.30;;;;;;5032780;28;20410;-60
2021/03/20 05:12:51;;;;;;;6.77;2.10;;;0.20;71.10;;;;;;5032854;28;20046;-60
2021/03/20 05:15:28;;;;;;;5.30;2.13;;;0.20;70.90;;;;;;5014877;28;20044;-61
2021/03/20 05:17:53;;;;;;;8.00;2.17;;;0.20;70.70;;;;;;5033302;28;20405;-61
2021/03/20 05:20:20;;;;;;;5.60;1.97;;;0.20;70.30;;;;;;5032174;28;20037;-61
2021/03/20 05:22:50;;;;;;;8.77;2.40;;;0.10;70.00;;;;;;5032508;28;20127;-61
2021/03/20 05:25:17;;;;;;;5.87;2.00;;;0.00;69.80;;;;;;5032462;28;20382;-61
2021/03/20 05:27:43;;;;;;;5.57;2.20;;;-0.10;69.80;;;;;;5015058;28;20489;-62
2021/03/20 05:30:11;;;;;;;7.40;2.17;;;-0.10;70.00;;;;;;5032556;28;20083;-61
2021/03/20 05:32:38;;;;;;;6.77;2.10;;;-0.20;69.90;;;;;;5031809;28;20041;-61
2021/03/20 05:35:12;;;;;;;9.47;2.27;;;-0.20;69.90;;;;;;5014613;28;20038;-62
2021/03/20 05:37:40;;;;;;;4.63;1.77;;;-0.30;70.00;;;;;;5032216;28;20111;-61
2021/03/20 05:40:29;;;;;;;6.77;2.00;;;-0.30;70.10;;;;;;5014549;28;20048;-61
2021/03/20 05:43:02;;;;;;;5.73;1.87;;;-0.20;70.50;;;;;;5031820;28;20394;-61
2021/03/20 05:45:38;;;;;;;5.30;1.90;;;-0.20;70.80;;;;;;5014891;28;20068;-62
2021/03/20 05:48:18;;;;;;;5.87;1.83;;;-0.10;71.00;;;;;;5015153;28;20034;-61
2021/03/20 05:50:56;;;;;;;7.63;2.00;;;0.10;71.00;;;;;;5014221;28;20034;-62
2021/03/20 05:53:30;;;;;;;4.73;1.97;;;0.10;70.50;;;;;;5032109;28;20072;-62
2021/03/20 05:55:58;;;;;;;6.10;1.90;;;0.20;70.50;;;;;;5014787;28;20049;-62
2021/03/20 05:58:50;;;;;;;9.03;1.90;;;0.30;70.60;;;;;;5032074;28;20041;-57
2021/03/20 06:01:44;;;;;;;5.00;1.63;;;0.50;70.80;;;;;;5031115;28;20049;-58
2021/03/20 06:04:27;;;;;;;6.13;1.80;;;0.60;70.60;;;;;;5014075;28;20037;-59
2021/03/20 06:07:07;;;;;;;7.67;2.03;;;0.70;70.60;;;;;;5032072;28;20033;-58
2021/03/20 06:09:45;;;;;;;6.32;1.70;;;0.90;70.70;;;;;;5031728;28;20033;-58
2021/03/20 06:12:40;;;;;;;8.57;1.77;;;1.10;70.80;;;;;;5013959;28;20044;-58
2021/03/20 06:15:13;;;;;;;8.27;2.03;;;1.20;70.30;;;;;;4950789;28;20074;-58
2021/03/20 06:17:57;;;;;;;7.20;1.80;;;1.30;69.90;;;;;;5025895;28;20061;-58
2021/03/20 06:20:50;;;;;;;6.03;1.70;;;1.40;70.30;;;;;;5013518;28;20116;-58
2021/03/20 06:23:40;;;;;;;5.90;1.70;;;1.60;70.10;;;;;;5031367;28;20033;-58
2021/03/20 06:26:31;;;;;;;4.10;1.50;;;1.80;69.10;;;;;;5031887;28;20124;-57
2021/03/20 06:29:02;;;;;;;4.47;1.45;;;1.70;68.10;;;;;;5013561;28;20052;-58
2021/03/20 06:31:52;;;;;;;6.05;1.60;;;1.60;67.90;;;;;;5031185;28;20046;-58
2021/03/20 06:34:21;;;;;;;8.07;1.77;;;1.60;67.90;;;;;;5030024;28;20041;-58
2021/03/20 06:36:52;;;;;;;3.97;1.33;;;1.50;67.20;;;;;;5031581;28;20063;-58
2021/03/20 06:39:27;;;;;;;;;;;1.40;66.90;;;;;;5013897;28;20045;-66
2021/03/20 06:41:58;;;;;;;3.90;1.40;;;1.40;67.20;;;;;;5013326;28;19913;-66
2021/03/20 06:44:33;;;;;;;6.17;1.43;;;1.40;67.20;;;;;;5030844;28;20037;-67
2021/03/20 06:46:59;;;;;;;6.00;1.77;;;1.40;67.00;;;;;;5030790;28;20045;-66
2021/03/20 06:49:35;;;;;;;4.67;1.53;;;1.40;66.60;;;;;;5013171;28;21895;-66
2021/03/20 06:52:04;;;;;;;4.30;1.60;;;1.40;66.60;;;;;;5030853;28;20045;-66
2021/03/20 06:54:30;;;;;;;5.23;1.33;;;1.40;66.90;;;;;;5013146;28;20278;-67
2021/03/20 06:56:57;;;;;;;3.90;1.53;;;1.50;67.00;;;;;;5031493;28;20037;-67
2021/03/20 06:59:24;;;;;;;6.80;1.50;;;1.60;66.80;;;;;;5012728;28;20041;-67
2021/03/20 07:02:11;;;;;;;4.10;1.20;;;1.70;66.90;;;;;;5012041;28;20051;-67
2021/03/20 07:04:40;;;;;;;5.40;1.33;;;1.90;66.60;;;;;;5031550;28;20482;-67
2021/03/20 07:07:38;;;;;;;5.57;1.53;;;2.00;66.50;;;;;;5032236;28;20041;-67
2021/03/20 07:10:15;;;;;;;7.77;1.50;;;2.00;65.50;;;;;;5038489;28;20029;-67
2021/03/20 07:13:05;;;;;;;5.90;1.50;;;2.10;65.60;;;;;;5032215;28;20045;-67
2021/03/20 07:15:30;;;;;;;4.20;1.50;;;2.10;65.30;;;;;;5032191;28;20608;-67
2021/03/20 07:18:19;;;;;;;4.50;1.40;;;2.20;64.90;;;;;;5032401;28;20079;-67
2021/03/20 07:20:45;;;;;;;7.07;1.50;;;2.20;64.90;;;;;;5048944;28;20171;-61
2021/03/20 07:23:14;;;;;;;5.73;1.47;;;2.20;64.40;;;;;;5031847;28;20048;-62
2021/03/20 07:26:18;;;;;;;5.43;1.43;;;2.20;64.30;;;;;;5049651;28;20049;-61
2021/03/20 07:28:50;;;;;;;4.60;1.20;;;2.20;64.20;;;;;;4968904;28;20054;-61
2021/03/20 07:31:17;;;;;;;4.47;1.40;;;2.30;64.50;;;;;;5035888;28;20405;-61
2021/03/20 07:33:48;;;;;;;5.27;1.43;;;2.40;64.60;;;;;;5049534;28;20040;-61
2021/03/20 07:36:39;;;;;;;13.93;1.60;;;2.60;64.80;;;;;;5050210;28;20115;-61
2021/03/20 07:39:15;;;;;;;3.80;1.40;;;2.80;63.90;;;;;;5049600;28;20385;-61
2021/03/20 07:41:50;;;;;;;5.93;1.57;;;2.90;63.40;;;;;;5049307;28;20544;-62
2021/03/20 07:44:19;;;;;;;4.03;1.43;;;3.00;63.40;;;;;;5031818;28;20048;-61
2021/03/20 07:46:45;;;;;;;6.67;1.50;;;3.20;63.60;;;;;;5050031;28;20040;-62
2021/03/20 07:49:29;;;;;;;5.07;1.70;;;3.50;63.10;;;;;;5049520;28;20404;-61
2021/03/20 07:52:19;;;;;;;5.87;1.50;;;3.60;61.80;;;;;;5049149;28;20064;-62
2021/03/20 07:54:45;;;;;;;3.60;1.30;;;3.70;62.20;;;;;;5032040;28;20069;-61
2021/03/20 07:57:17;;;;;;;5.13;1.40;;;4.00;62.40;;;;;;5049991;28;20059;-62
2021/03/20 07:59:52;;;;;;;5.93;1.30;;;4.30;61.90;;;;;;5034170;28;20421;-61
2021/03/20 08:02:29;;;;;;;4.83;1.33;;;4.40;60.70;;;;;;5053765;28;20025;-62
2021/03/20 08:05:05;;;;;;;6.40;1.63;;;4.50;59.60;;;;;;5035464;28;20128;-61
2021/03/20 08:07:35;;;;;;;4.40;1.40;;;4.40;59.20;;;;;;5053883;28;20048;-62
2021/03/20 08:10:15;;;;;;;5.55;1.23;;;4.50;60.10;;;;;;5052897;28;20049;-61
2021/03/20 08:13:00;;;;;;;4.60;1.60;;;4.80;60.00;;;;;;5053475;28;20044;-61
2021/03/20 08:15:36;;;;;;;5.77;1.50;;;5.00;58.80;;;;;;5053387;28;20037;-62
2021/03/20 08:18:16;;;;;;;7.03;1.77;;;4.90;57.40;;;;;;5053608;28;20074;-62
2021/03/20 08:20:44;;;;;;;6.27;1.60;;;4.70;57.10;;;;;;5034541;28;20041;-63
2021/03/20 08:23:40;;;;;;;5.93;1.30;;;4.70;58.10;;;;;;5053590;28;20120;-61
2021/03/20 08:26:11;;;;;;;5.00;1.40;;;4.80;57.30;;;;;;5052747;28;20138;-61
2021/03/20 08:28:46;;;;;;;5.03;1.60;;;4.80;57.30;;;;;;5035721;28;20060;-62
2021/03/20 08:31:33;;;;;;;5.27;1.40;;;4.90;58.00;;;;;;5052076;28;20060;-62
2021/03/20 08:34:14;;;;;;;5.03;1.40;;;5.20;57.80;;;;;;5034794;28;20404;-61
2021/03/20 08:36:54;;;;;;;4.50;1.33;;;5.40;56.50;;;;;;5053120;28;20044;-61
2021/03/20 08:39:46;;;;;;;4.80;1.20;;;5.70;56.30;;;;;;5052793;28;20029;-61
2021/03/20 08:42:18;;;;;;;4.57;1.50;;;5.90;54.80;;;;;;5051267;28;20045;-61
2021/03/20 08:45:07;;;;;;;4.40;1.10;;;5.90;54.60;;;;;;5067666;22;20079;-67
2021/03/20 08:47:48;;;;;;;3.90;1.27;;;6.40;55.30;;;;;;5052394;28;20450;-67
2021/03/20 08:50:36;;;;;;;4.10;1.40;;;6.60;54.40;;;;;;5052129;28;20063;-67
2021/03/20 08:53:41;;;;;;;5.63;1.37;;;6.90;53.80;;;;;;5034657;28;20059;-66
2021/03/20 08:56:28;;;;;;;5.57;1.33;;;7.00;52.40;;;;;;5001414;28;20417;-67
2021/03/20 08:59:14;;;;;;;5.37;1.27;;;6.50;50.60;;;;;;5025245;28;20092;-65
2021/03/20 09:01:46;;;;;;;5.37;1.33;;;5.80;50.10;;;;;;4996154;28;20057;-66
2021/03/20 09:04:22;;;;;;;4.60;1.37;;;5.40;50.80;;;;;;5013805;28;20136;-66
2021/03/20 09:06:55;;;;;;;4.83;1.53;;;5.00;51.30;;;;;;5029628;28;20042;-64
2021/03/20 09:09:49;;;;;;;4.67;1.30;;;4.90;51.80;;;;;;4996146;28;20038;-67
2021/03/20 09:12:29;;;;;;;4.17;1.40;;;4.70;51.20;;;;;;5012282;28;20050;-67
2021/03/20 09:14:55;;;;;;;5.67;1.40;;;4.60;51.10;;;;;;5013962;28;20724;-67
2021/03/20 09:17:31;;;;;;;6.37;1.50;;;4.50;51.40;;;;;;5016284;28;20128;-67
2021/03/20 09:20:21;;;;;;;4.57;1.40;;;4.70;52.50;;;;;;5013093;28;20511;-67
2021/03/20 09:22:48;;;;;;;4.17;1.47;;;4.90;52.00;;;;;;5019890;28;20038;-66
2021/03/20 09:25:37;;;;;;;7.30;1.50;;;5.20;52.10;;;;;;5014393;28;20116;-66
2021/03/20 09:28:17;;;;;;;4.23;1.40;;;5.40;51.40;;;;;;5019077;28;20136;-68
2021/03/20 09:30:46;;;;;;;5.47;1.50;;;5.40;50.50;;;;;;5031864;28;20041;-66
2021/03/20 09:33:31;;;;;;;5.27;1.40;;;5.40;50.30;;;;;;5031667;28;20038;-67
2021/03/20 09:36:28;;;;;;;4.60;1.40;;;5.30;50.00;;;;;;5015768;28;20459;-66
2021/03/20 09:38:55;;;;;;;6.47;1.50;;;5.10;50.20;;;;;;5039949;28;20087;-67
2021/03/20 09:41:24;;;;;;;5.17;1.20;;;5.20;50.90;;;;;;5042826;28;20049;-68
2021/03/20 09:43:58;;;;;;;4.30;1.20;;;5.50;51.40;;;;;;5021334;28;20038;-67
2021/03/20 09:46:38;;;;;;;3.93;1.30;;;5.90;51.60;;;;;;5019494;28;20025;-68
2021/03/20 09:49:07;;;;;;;5.80;1.90;;;6.50;51.60;;;;;;5034956;28;20163;-68
2021/03/20 09:51:48;;;;;;;4.70;1.60;;;6.70;50.10;;;;;;5038264;28;20108;-62
2021/03/20 09:54:26;;;;;;;4.60;1.50;;;6.90;49.30;;;;;;5038384;28;20045;-62
2021/03/20 09:56:54;;;;;;;5.47;1.50;;;6.80;48.70;;;;;;5022804;28;20194;-63
2021/03/20 09:59:31;;;;;;;6.03;1.80;;;6.60;48.50;;;;;;5022683;28;20207;-62
2021/03/20 10:02:10;;;;;;;5.97;1.80;;;6.40;48.60;;;;;;5039060;28;20049;-62
2021/03/20 10:04:37;;;;;;;4.93;1.70;;;6.20;48.70;;;;;;5023340;28;20405;-63
2021/03/20 10:07:24;;;;;;;5.43;1.80;;;6.10;49.00;;;;;;5040309;28;20094;-62
2021/03/20 10:09:52;;;;;;;5.10;1.50;;;6.00;48.90;;;;;;5039792;28;20079;-61
2021/03/20 10:12:55;;;;;;;6.83;1.73;;;6.00;49.40;;;;;;5018583;28;20083;-61
2021/03/20 10:15:31;;;;;;;6.50;1.63;;;6.30;50.20;;;;;;4989895;28;20040;-61
2021/03/20 10:18:24;;;;;;;5.70;1.90;;;6.70;50.30;;;;;;5021891;28;20034;-61
2021/03/20 10:20:55;;;;;;;5.43;1.93;;;7.00;48.70;;;;;;5046303;28;20051;-61
2021/03/20 10:23:49;;;;;;;7.17;2.03;;;7.10;48.60;;;;;;5038541;28;20413;-60
2021/03/20 10:26:21;;;;;;;6.00;2.10;;;7.20;48.10;;;;;;5037436;28;20037;-60
2021/03/20 10:28:53;;;;;;;7.20;2.00;;;7.30;48.80;;;;;;5020165;28;20033;-60
2021/03/20 10:31:19;;;;;;;5.63;1.93;;;7.40;47.80;;;;;;5036678;28;20057;-60
2021/03/20 10:33:46;;;;;;;6.07;1.87;;;7.30;47.40;;;;;;5039820;28;20489;-60
2021/03/20 10:36:15;;;;;;;8.67;2.13;;;7.30;47.90;;;;;;5040237;28;20041;-61
2021/03/20 10:38:42;;;;;;;7.13;2.50;;;7.50;48.50;;;;;;5028080;28;20390;-60
2021/03/20 10:41:22;;;;;;;7.07;2.67;;;7.80;48.20;;;;;;5039444;28;20854;-60
2021/03/20 10:43:57;;;;;;;6.67;2.87;;;8.10;48.40;;;;;;5035896;28;20045;-61
2021/03/20 10:46:28;;;;;;;5.83;2.20;;;8.60;48.50;;;;;;5041335;28;20541;-60
2021/03/20 10:48:57;;;;;;;6.72;2.20;;;8.90;47.20;;;;;;5038614;28;20079;-61
2021/03/20 10:51:26;;;;;;;7.33;2.40;;;9.10;46.70;;;;;;5025265;28;20124;-60
2021/03/20 10:53:54;;;;;;;9.33;2.47;;;9.00;46.20;;;;;;5032399;28;20099;-62
2021/03/20 10:56:27;;;;;;;6.87;2.60;;;9.20;46.30;;;;;;5038823;28;20476;-62
2021/03/20 10:58:53;;;;;;;7.15;2.88;;;9.70;47.10;;;;;;5020572;28;20067;-62
2021/03/20 11:01:33;;;;;;;8.75;2.58;;;10.50;46.90;;;;;;5039647;28;20553;-68
2021/03/20 11:03:59;;;;;;;;;;;10.70;44.30;;;;;;5027585;28;20473;-68
2021/03/20 11:06:26;;;;;;;6.97;2.67;;;10.50;44.70;;;;;;5040368;28;19925;-68
2021/03/20 11:09:15;;;;;;;6.88;2.42;;;10.40;44.50;;;;;;5038842;28;20121;-67
2021/03/20 11:11:43;;;;;;;6.65;2.67;;;10.60;44.90;;;;;;5037774;28;20042;-67
2021/03/20 11:14:14;;;;;;;6.55;2.78;;;10.90;44.60;;;;;;5038456;28;20033;-68
2021/03/20 11:16:48;;;;;;;6.75;2.50;;;11.10;43.80;;;;;;5038917;28;20044;-68
2021/03/20 11:19:33;;;;;;;6.15;2.80;;;11.30;44.20;;;;;;5035663;28;20040;-69
2021/03/20 11:22:14;;;;;;;6.28;2.72;;;12.10;44.80;;;;;;5035023;28;20055;-68
2021/03/20 11:24:40;;;;;;;7.82;2.97;;;12.90;43.40;;;;;;5038029;28;20048;-61
2021/03/20 11:27:27;;;;;;;7.05;3.05;;;12.70;41.80;;;;;;5039856;28;20288;-61
2021/03/20 11:30:17;;;;;;;6.82;3.00;;;12.00;40.70;;;;;;5035958;28;20167;-62
2021/03/20 11:32:45;;;;;;;7.88;2.90;;;11.10;41.30;;;;;;5039238;28;20040;-61
2021/03/20 11:35:16;;;;;;;6.18;2.80;;;10.70;43.40;;;;;;5049428;28;20040;-61
2021/03/20 11:37:45;;;;;;;7.60;3.13;;;10.70;43.20;;;;;;5048036;28;20033;-61
2021/03/20 11:40:28;;;;;;;8.00;3.22;;;10.60;43.40;;;;;;5049074;28;20075;-61
2021/03/20 11:42:57;;;;;;;9.05;3.30;;;10.50;42.60;;;;;;5049400;28;20354;-61
2021/03/20 11:45:27;;;;;;;7.88;3.65;;;10.10;43.50;;;;;;5049703;28;20546;-61
2021/03/20 11:47:56;;;;;;;7.88;3.30;;;10.20;43.60;;;;;;5032852;28;20048;-60
2021/03/20 11:50:29;;;;;;;7.70;2.95;;;10.00;43.70;;;;;;5051250;28;20048;-60
2021/03/20 11:53:05;;;;;;;8.20;3.40;;;10.00;44.80;;;;;;5050645;28;20048;-60
2021/03/20 11:55:41;;;;;;;7.47;2.90;;;10.20;44.80;;;;;;5050854;28;20043;-61
2021/03/20 11:58:26;;;;;;;10.05;3.05;;;10.10;43.90;;;;;;5051566;28;20028;-60
2021/03/20 12:00:52;;;;;;;6.43;3.15;;;9.90;43.60;;;;;;5052529;28;20045;-61
2021/03/20 12:03:21;;;;;;;8.00;2.92;;;9.80;45.00;;;;;;5051929;28;20037;-61
2021/03/20 12:05:47;;;;;;;6.68;3.30;;;9.80;44.90;;;;;;5050439;28;20084;-61
2021/03/20 12:08:27;;;;;;;6.70;3.28;;;9.90;45.20;;;;;;5050695;28;20041;-61
2021/03/20 12:11:05;;;;;;;8.88;3.33;;;9.80;44.70;;;;;;5032068;28;20041;-61
2021/03/20 12:13:48;;;;;;;6.85;3.15;;;9.60;44.90;;;;;;5017216;28;20041;-61
2021/03/20 12:16:28;;;;;;;7.13;3.22;;;9.40;45.20;;;;;;5032535;28;20048;-60
2021/03/20 12:19:06;;;;;;;8.95;3.90;;;9.10;45.00;;;;;;5050038;28;20037;-61
2021/03/20 12:21:32;;;;;;;9.47;3.60;;;8.70;45.50;;;;;;5049826;28;20041;-60
2021/03/20 12:23:59;;;;;;;8.48;3.70;;;8.40;46.60;;;;;;5050432;28;20093;-61
2021/03/20 12:26:31;;;;;;;7.63;3.20;;;8.40;47.70;;;;;;5049452;28;20550;-61
2021/03/20 12:29:27;;;;;;;7.40;3.47;;;8.40;47.90;;;;;;5032276;28;20067;-61
2021/03/20 12:31:53;;;;;;;8.57;3.50;;;8.60;48.20;;;;;;5049149;28;20037;-61
2021/03/20 12:34:18;;;;;;;7.07;3.37;;;8.60;48.00;;;;;;5050255;28;20492;-60
2021/03/20 12:36:49;;;;;;;9.57;3.87;;;8.50;47.50;;;;;;5046628;28;20405;-61
2021/03/20 12:39:20;;;;;;;9.25;3.97;;;8.20;48.40;;;;;;5039020;28;20032;-61
2021/03/20 12:41:53;;;;;;;7.10;3.70;;;8.00;48.90;;;;;;5034824;28;20051;-62
2021/03/20 12:44:25;;;;;;;8.07;3.73;;;8.00;50.00;;;;;;5023079;28;20033;-61
2021/03/20 12:46:54;;;;;;;8.13;3.97;;;8.00;49.80;;;;;;5041633;28;20132;-61
2021/03/20 12:49:22;;;;;;;10.23;3.90;;;7.90;50.20;;;;;;5043755;28;20037;-60
2021/03/20 12:51:50;;;;;;;8.00;4.10;;;7.90;50.60;;;;;;5042112;28;20041;-61
2021/03/20 12:54:24;;;;;;;8.90;4.00;;;7.90;50.90;;;;;;5040138;28;20061;-61
2021/03/20 12:56:50;;;;;;;8.00;3.93;;;7.80;50.60;;;;;;5042854;28;20499;-61
2021/03/20 12:59:16;;;;;;;6.90;4.10;;;7.70;50.80;;;;;;5043166;28;20123;-61
2021/03/20 13:01:41;;;;;;;7.10;3.97;;;7.50;51.40;;;;;;5042997;28;20132;-66
2021/03/20 13:04:11;;;;;;;7.13;3.73;;;7.60;51.70;;;;;;5042532;28;20042;-67
2021/03/20 13:06:37;;;;;;;8.68;3.97;;;7.50;51.70;;;;;;5041641;28;20509;-62
2021/03/20 13:09:03;;;;;;;7.63;3.93;;;7.50;52.30;;;;;;5045194;28;20033;-62
2021/03/20 13:11:29;;;;;;;8.30;4.00;;;7.50;52.20;;;;;;5041542;28;20129;-63
2021/03/20 13:13:55;;;;;;;9.30;4.37;;;7.40;52.20;;;;;;5017053;28;20030;-63
2021/03/20 13:16:20;;;;;;;8.33;3.90;;;7.40;52.70;;;;;;5017646;28;20037;-63
2021/03/20 13:18:46;;;;;;;9.10;4.27;;;7.40;52.90;;;;;;5052077;28;20572;-62
2021/03/20 13:21:13;;;;;;;8.50;4.10;;;7.30;52.80;;;;;;5044052;28;20042;-63
2021/03/20 13:23:39;;;;;;;8.17;4.10;;;7.30;52.80;;;;;;5032515;28;20040;-64
2021/03/20 13:26:04;;;;;;;8.03;4.27;;;7.30;53.50;;;;;;5015153;28;20045;-61
2021/03/20 13:28:31;;;;;;;8.03;4.40;;;7.40;53.30;;;;;;5031873;28;20135;-61